createdAt,value
2023-03-29T00:01:35.139Z,2.04
2023-03-29T00:04:38.995Z,1.98
2023-03-29T00:07:41.738Z,2.02
2023-03-29T00:10:44.235Z,2.01
2023-03-29T00:13:46.393Z,2.09
2023-03-29T00:16:48.949Z,2.11
2023-03-29T00:19:51.322Z,2.13
2023-03-29T00:22:53.798Z,2.05
2023-03-29T00:25:56.655Z,2.09
2023-03-29T00:28:59.169Z,1.95
2023-03-29T00:32:01.401Z,1.85
2023-03-29T00:35:06.141Z,1.89
2023-03-29T00:38:08.579Z,1.84
2023-03-29T00:41:11.748Z,1.85
2023-03-29T00:44:54.976Z,1.74
2023-03-29T00:48:07.571Z,1.77
2023-03-29T00:51:14.285Z,1.71
2023-03-29T00:54:18.695Z,1.84
2023-03-29T00:57:25.254Z,1.83
2023-03-29T01:00:34.884Z,1.69
2023-03-29T01:03:46.376Z,1.67
2023-03-29T01:07:06.592Z,1.64
2023-03-29T01:10:14.522Z,1.55
2023-03-29T01:13:26.234Z,1.45
2023-03-29T01:16:30.368Z,1.27
2023-03-29T01:19:42.248Z,1.34
2023-03-29T01:23:16.883Z,1.35
2023-03-29T01:26:27.072Z,1.31
2023-03-29T01:29:40.080Z,1.18
2023-03-29T01:32:50.497Z,1.22
2023-03-29T01:36:00.056Z,1.20
2023-03-29T01:39:06.163Z,1.09
2023-03-29T01:42:22.620Z,1.12
2023-03-29T01:45:36.604Z,1.14
2023-03-29T01:48:51.559Z,1.08
2023-03-29T01:52:17.066Z,1.14
2023-03-29T01:55:32.928Z,1.18
2023-03-29T01:58:40.067Z,1.26
2023-03-29T02:01:49.486Z,1.11
2023-03-29T02:04:54.155Z,1.14
2023-03-29T02:07:58.316Z,1.04
2023-03-29T02:11:01.547Z,0.97
2023-03-29T02:14:04.260Z,0.95
2023-03-29T02:17:26.517Z,0.97
2023-03-29T02:20:38.745Z,0.94
2023-03-29T02:23:45.624Z,0.86
2023-03-29T02:26:48.986Z,0.67
2023-03-29T02:29:51.228Z,0.77
2023-03-29T02:33:00.272Z,0.76
2023-03-29T02:36:10.241Z,0.84
2023-03-29T02:39:15.648Z,0.75
2023-03-29T02:42:20.324Z,0.73
2023-03-29T02:45:25.099Z,0.67
2023-03-29T02:48:29.359Z,0.69
2023-03-29T02:51:34.125Z,0.70
2023-03-29T02:54:43.373Z,0.63
2023-03-29T02:57:45.932Z,0.52
2023-03-29T03:00:49.039Z,0.43
2023-03-29T03:03:51.887Z,0.36
2023-03-29T03:06:54.236Z,0.28
2023-03-29T03:09:57.674Z,0.24
2023-03-29T03:12:59.874Z,0.18
2023-03-29T03:16:04.868Z,0.21
2023-03-29T03:19:07.211Z,0.19
2023-03-29T03:22:10.010Z,0.18
2023-03-29T03:25:12.934Z,0.08
2023-03-29T03:28:15.517Z,0.11
2023-03-29T03:31:19.585Z,0.08
2023-03-29T03:34:26.292Z,0.07
2023-03-29T03:37:28.867Z,0.06
2023-03-29T03:40:32.343Z,0.04
2023-03-29T03:43:34.861Z,0.02
2023-03-29T03:46:38.204Z,0.03
2023-03-29T03:49:40.968Z,0.07
2023-03-29T03:52:43.606Z,0.05
2023-03-29T03:55:53.404Z,-0.17
2023-03-29T03:58:56.926Z,-0.14
2023-03-29T04:01:59.917Z,-0.22
2023-03-29T04:05:03.441Z,-0.30
2023-03-29T04:08:06.691Z,-0.31
2023-03-29T04:11:10.765Z,-0.32
2023-03-29T04:14:13.100Z,-0.47
2023-03-29T04:17:17.377Z,-0.51
2023-03-29T04:20:20.267Z,-0.42
2023-03-29T04:23:23.006Z,-0.38
2023-03-29T04:26:25.827Z,-0.27
2023-03-29T04:29:30.452Z,-0.28
2023-03-29T04:32:33.652Z,-0.25
2023-03-29T04:35:36.543Z,-0.27
2023-03-29T04:38:43.362Z,-0.38
2023-03-29T04:41:50.443Z,-0.38
2023-03-29T04:44:53.333Z,-0.30
2023-03-29T04:48:01.706Z,-0.34
2023-03-29T04:51:05.722Z,-0.30
2023-03-29T04:54:09.014Z,-0.35
2023-03-29T04:57:12.263Z,-0.43
2023-03-29T05:00:16.633Z,-0.35
2023-03-29T05:03:21.057Z,-0.34
2023-03-29T05:06:23.982Z,-0.23
2023-03-29T05:09:26.319Z,-0.08
2023-03-29T05:12:28.871Z,-0.05
2023-03-29T05:15:32.075Z,-0.03
2023-03-29T05:18:34.719Z,0.00
2023-03-29T05:21:38.666Z,0.14
2023-03-29T05:24:42.409Z,0.18
2023-03-29T05:27:45.896Z,0.15
2023-03-29T05:31:00.694Z,0.15
2023-03-29T05:34:05.269Z,0.25
2023-03-29T05:37:09.081Z,0.29
2023-03-29T05:40:13.560Z,0.38
2023-03-29T05:43:16.833Z,0.44
2023-03-29T05:46:19.463Z,0.60
2023-03-29T05:49:23.194Z,0.68
2023-03-29T05:52:26.408Z,0.66
2023-03-29T05:55:29.519Z,0.79
2023-03-29T05:58:33.994Z,0.92
2023-03-29T06:01:36.832Z,0.91
2023-03-29T06:04:39.994Z,1.00
2023-03-29T06:07:45.146Z,1.17
2023-03-29T06:10:49.078Z,1.22
2023-03-29T06:13:52.989Z,1.34
2023-03-29T06:16:56.531Z,1.35
2023-03-29T06:19:59.582Z,1.35
2023-03-29T06:23:03.483Z,1.43
2023-03-29T06:26:06.165Z,1.45
2023-03-29T06:29:10.698Z,1.54
2023-03-29T06:32:15.441Z,1.62
2023-03-29T06:35:19.548Z,1.84
2023-03-29T06:38:22.121Z,1.90
2023-03-29T06:41:26.425Z,1.94
2023-03-29T06:44:29.552Z,1.96
2023-03-29T06:47:32.884Z,2.04
2023-03-29T06:50:36.183Z,2.20
2023-03-29T06:53:38.872Z,2.30
2023-03-29T06:56:41.229Z,2.33
2023-03-29T06:59:44.196Z,2.25
2023-03-29T07:02:47.334Z,2.27
2023-03-29T07:05:52.112Z,2.21
2023-03-29T07:09:00.794Z,2.31
2023-03-29T07:12:05.041Z,2.52
2023-03-29T07:15:08.750Z,2.49
2023-03-29T07:18:19.022Z,2.67
2023-03-29T07:21:21.333Z,2.76
2023-03-29T07:24:23.878Z,2.79
2023-03-29T07:27:26.963Z,2.81
2023-03-29T07:30:32.153Z,2.85
2023-03-29T07:33:39.797Z,3.07
2023-03-29T07:36:45.185Z,3.17
2023-03-29T07:39:47.575Z,3.51
2023-03-29T07:42:53.982Z,3.70
2023-03-29T07:46:01.660Z,3.85
2023-03-29T07:49:04.666Z,4.01
2023-03-29T07:52:07.008Z,4.02
2023-03-29T07:55:11.571Z,4.11
2023-03-29T07:58:16.730Z,4.14
2023-03-29T08:01:19.997Z,4.13
2023-03-29T08:04:27.115Z,4.33
2023-03-29T08:11:28.960Z,4.40
2023-03-29T08:14:32.054Z,4.55
2023-03-29T08:17:35.254Z,4.88
2023-03-29T08:20:37.936Z,4.99
2023-03-29T08:23:40.195Z,5.16
2023-03-29T08:26:43.545Z,5.39
2023-03-29T08:29:46.621Z,5.50
2023-03-29T08:32:52.188Z,5.71
2023-03-29T08:35:56.446Z,6.07
2023-03-29T08:38:59.606Z,6.43
2023-03-29T08:42:50.302Z,6.97
2023-03-29T08:46:00.033Z,7.28
2023-03-29T08:49:08.514Z,6.98
2023-03-29T08:52:28.275Z,7.52
2023-03-29T08:55:38.244Z,8.00
2023-03-29T08:58:46.605Z,8.15
2023-03-29T09:01:53.094Z,8.56
2023-03-29T09:05:01.172Z,8.82
2023-03-29T09:08:04.101Z,9.13
2023-03-29T09:11:26.104Z,9.89
2023-03-29T09:14:50.064Z,10.26
2023-03-29T09:18:21.899Z,10.43
2023-03-29T09:21:50.603Z,10.73
2023-03-29T09:25:07.191Z,10.43
2023-03-29T09:28:14.358Z,10.46
2023-03-29T09:31:44.848Z,10.24
2023-03-29T09:35:00.912Z,10.56
2023-03-29T09:38:09.370Z,10.68
2023-03-29T09:41:24.650Z,9.77
2023-03-29T09:44:37.299Z,10.45
2023-03-29T09:47:45.961Z,10.42
2023-03-29T09:50:51.476Z,10.56
2023-03-29T09:53:56.589Z,10.68
2023-03-29T09:57:00.247Z,10.61
2023-03-29T10:00:06.105Z,10.25
2023-03-29T10:03:19.603Z,9.91
2023-03-29T10:06:24.453Z,10.19
2023-03-29T10:09:29.991Z,10.25
2023-03-29T10:12:33.564Z,10.38
2023-03-29T10:15:36.036Z,9.87
2023-03-29T10:18:40.684Z,9.85
2023-03-29T10:21:42.959Z,9.72
2023-03-29T10:24:53.983Z,9.86
2023-03-29T10:28:13.419Z,9.80
2023-03-29T10:31:22.235Z,9.65
2023-03-29T10:34:28.095Z,9.63
2023-03-29T10:37:31.569Z,9.58
2023-03-29T10:40:35.590Z,9.48
2023-03-29T10:43:43.506Z,9.52
2023-03-29T10:46:46.466Z,9.95
2023-03-29T10:49:56.373Z,10.00
2023-03-29T10:52:59.405Z,9.72
2023-03-29T10:56:23.540Z,9.24
2023-03-29T10:59:47.584Z,9.17
2023-03-29T11:03:41.362Z,9.10
2023-03-29T11:06:52.487Z,9.27
2023-03-29T11:10:28.425Z,9.61
2023-03-29T11:13:40.999Z,9.54
2023-03-29T11:16:50.982Z,9.60
2023-03-29T11:20:04.909Z,9.85
2023-03-29T11:23:32.313Z,9.84
2023-03-29T11:26:57.918Z,9.56
2023-03-29T11:30:22.012Z,9.57
2023-03-29T11:33:52.000Z,10.03
2023-03-29T11:37:13.622Z,10.25
2023-03-29T11:40:37.239Z,10.26
2023-03-29T11:43:51.329Z,10.31
2023-03-29T11:47:18.661Z,10.18
2023-03-29T11:50:25.744Z,10.16
2023-03-29T11:53:37.642Z,10.08
2023-03-29T11:56:47.406Z,10.16
2023-03-29T11:59:49.703Z,10.06
2023-03-29T12:03:02.836Z,9.90
2023-03-29T12:06:37.819Z,9.72
2023-03-29T12:09:47.737Z,9.93
2023-03-29T12:13:07.660Z,10.00
2023-03-29T12:16:35.119Z,10.27
2023-03-29T12:19:45.346Z,10.36
2023-03-29T12:22:49.162Z,10.16
2023-03-29T12:26:11.913Z,10.15
2023-03-29T12:29:29.593Z,10.11
2023-03-29T12:32:50.598Z,10.14
2023-03-29T12:36:28.492Z,10.06
2023-03-29T12:39:33.301Z,10.20
2023-03-29T12:42:52.484Z,10.39
2023-03-29T12:46:01.997Z,10.42
2023-03-29T12:49:13.039Z,10.40
2023-03-29T12:52:31.397Z,10.46
2023-03-29T12:55:42.940Z,10.43
2023-03-29T12:58:45.405Z,10.43
2023-03-29T13:02:13.975Z,10.51
2023-03-29T13:05:36.798Z,10.39
2023-03-29T13:08:42.384Z,10.34
2023-03-29T13:11:45.646Z,10.48
2023-03-29T13:14:54.475Z,10.43
2023-03-29T13:18:26.636Z,10.53
2023-03-29T13:21:31.455Z,10.71
2023-03-29T13:25:15.066Z,10.63
2023-03-29T13:28:39.264Z,10.28
2023-03-29T13:32:26.981Z,10.27
2023-03-29T13:35:55.299Z,10.28
2023-03-29T13:39:05.435Z,10.28
2023-03-29T13:42:39.983Z,10.30
2023-03-29T13:45:42.492Z,10.26
2023-03-29T13:49:14.372Z,10.37
2023-03-29T13:52:22.633Z,10.29
2023-03-29T13:55:31.572Z,10.23
2023-03-29T13:58:48.224Z,10.38
2023-03-29T14:01:57.225Z,10.32
2023-03-29T14:05:04.328Z,10.27
2023-03-29T14:08:25.403Z,10.07
2023-03-29T14:11:30.035Z,9.98
2023-03-29T14:14:32.920Z,10.01
2023-03-29T14:17:36.956Z,9.95
2023-03-29T14:20:44.439Z,9.90
2023-03-29T14:23:54.053Z,10.04
2023-03-29T14:26:56.539Z,10.15
2023-03-29T14:29:59.032Z,10.12
2023-03-29T14:33:05.060Z,9.91
2023-03-29T14:36:15.925Z,9.80
2023-03-29T14:39:21.444Z,9.99
2023-03-29T14:42:28.763Z,9.76
2023-03-29T14:45:32.160Z,9.86
2023-03-29T14:48:35.695Z,9.99
2023-03-29T14:51:40.499Z,9.97
2023-03-29T14:54:47.004Z,9.94
2023-03-29T14:57:51.426Z,9.74
2023-03-29T15:00:54.934Z,9.78
2023-03-29T15:04:09.036Z,9.81
2023-03-29T15:07:11.495Z,9.70
2023-03-29T15:10:19.268Z,9.72
2023-03-29T15:13:24.655Z,9.87
2023-03-29T15:16:27.950Z,9.90
2023-03-29T15:19:31.594Z,9.84
2023-03-29T15:22:34.441Z,9.81
2023-03-29T15:25:45.812Z,9.80
2023-03-29T15:28:49.213Z,9.84
2023-03-29T15:31:56.902Z,9.80
2023-03-29T15:35:01.398Z,9.79
2023-03-29T15:38:06.140Z,9.73
2023-03-29T15:41:08.970Z,9.63
2023-03-29T15:44:12.478Z,9.56
2023-03-29T15:47:14.974Z,9.56
2023-03-29T15:50:17.465Z,9.59
2023-03-29T15:53:23.642Z,9.60
2023-03-29T15:56:26.690Z,9.59
2023-03-29T15:59:30.923Z,9.62
2023-03-29T16:02:34.125Z,9.54
2023-03-29T16:05:36.582Z,9.54
2023-03-29T16:08:38.985Z,9.42
2023-03-29T16:11:42.934Z,9.45
2023-03-29T16:14:45.103Z,9.39
2023-03-29T16:17:47.603Z,9.39
2023-03-29T16:20:49.751Z,9.40
2023-03-29T16:23:52.156Z,9.39
2023-03-29T16:26:56.480Z,9.39
2023-03-29T16:29:59.057Z,9.35
2023-03-29T16:33:06.117Z,9.33
2023-03-29T16:36:09.961Z,9.30
2023-03-29T16:39:15.198Z,9.26
2023-03-29T16:42:17.727Z,9.24
2023-03-29T16:45:20.375Z,9.24
2023-03-29T16:48:23.749Z,9.11
2023-03-29T16:51:26.187Z,9.19
2023-03-29T16:54:29.631Z,9.18
2023-03-29T16:57:31.825Z,9.04
2023-03-29T17:00:34.743Z,9.02
2023-03-29T17:03:37.660Z,9.02
2023-03-29T17:06:40.924Z,8.99
2023-03-29T17:09:43.154Z,8.97
2023-03-29T17:12:45.849Z,8.93
2023-03-29T17:15:52.089Z,8.96
2023-03-29T17:18:54.584Z,8.89
2023-03-29T17:21:56.878Z,8.82
2023-03-29T17:24:59.400Z,8.73
2023-03-29T17:28:01.640Z,8.65
2023-03-29T17:31:07.481Z,8.66
2023-03-29T17:34:09.812Z,8.63
2023-03-29T17:37:12.848Z,8.57
2023-03-29T17:40:14.979Z,8.59
2023-03-29T17:43:17.509Z,8.58
2023-03-29T17:46:22.801Z,8.58
2023-03-29T17:49:25.479Z,8.59
2023-03-29T17:52:27.721Z,8.56
2023-03-29T17:55:30.178Z,8.45
2023-03-29T17:58:32.431Z,8.43
2023-03-29T18:01:36.402Z,8.47
2023-03-29T18:04:41.007Z,8.45
2023-03-29T18:07:43.272Z,8.30
2023-03-29T18:10:45.905Z,8.34
2023-03-29T18:13:52.402Z,8.35
2023-03-29T18:16:55.752Z,8.33
2023-03-29T18:19:57.950Z,8.28
2023-03-29T18:23:00.378Z,8.29
2023-03-29T18:26:04.633Z,8.26
2023-03-29T18:29:09.736Z,8.20
2023-03-29T18:32:12.481Z,8.23
2023-03-29T18:35:15.083Z,8.26
2023-03-29T18:38:19.144Z,8.24
2023-03-29T18:41:23.783Z,8.12
2023-03-29T18:44:27.257Z,8.15
2023-03-29T18:47:29.834Z,8.05
2023-03-29T18:50:32.445Z,8.09
2023-03-29T18:53:36.309Z,8.09
2023-03-29T18:56:38.674Z,8.02
2023-03-29T18:59:41.215Z,8.03
2023-03-29T19:02:43.536Z,8.00
2023-03-29T19:05:46.293Z,8.00
2023-03-29T19:08:48.470Z,8.01
2023-03-29T19:11:51.068Z,7.96
2023-03-29T19:14:53.278Z,7.97
2023-03-29T19:17:55.868Z,7.96
2023-03-29T19:20:58.406Z,8.01
2023-03-29T19:24:03.943Z,7.96
2023-03-29T19:27:06.559Z,7.87
2023-03-29T19:30:09.779Z,7.88
2023-03-29T19:33:12.344Z,7.92
2023-03-29T19:36:14.832Z,7.88
2023-03-29T19:39:17.406Z,7.90
2023-03-29T19:42:20.181Z,7.86
2023-03-29T19:45:23.390Z,7.80
2023-03-29T19:48:26.063Z,7.81
2023-03-29T19:51:28.366Z,7.74
2023-03-29T19:54:30.972Z,7.69
2023-03-29T19:57:34.201Z,7.67
2023-03-29T20:00:38.678Z,7.67
2023-03-29T20:03:43.528Z,7.64
2023-03-29T20:06:46.309Z,7.72
2023-03-29T20:09:48.778Z,7.74
2023-03-29T20:12:51.002Z,7.75
2023-03-29T20:15:54.019Z,7.75
2023-03-29T20:18:56.244Z,7.71
2023-03-29T20:22:00.605Z,7.73
2023-03-29T20:25:02.768Z,7.73
2023-03-29T20:28:06.558Z,7.73
2023-03-29T20:31:10.991Z,7.69
2023-03-29T20:34:13.493Z,7.66
2023-03-29T20:37:15.619Z,7.65
2023-03-29T20:40:18.005Z,7.64
2023-03-29T20:43:20.296Z,7.55
2023-03-29T20:46:23.854Z,7.51
2023-03-29T20:49:26.645Z,7.45
2023-03-29T20:52:29.134Z,7.45
2023-03-29T20:55:33.313Z,7.50
2023-03-29T20:58:35.728Z,7.46
2023-03-29T21:01:40.753Z,7.40
2023-03-29T21:04:44.088Z,7.45
2023-03-29T21:07:47.892Z,7.46
2023-03-29T21:10:51.640Z,7.44
2023-03-29T21:13:53.974Z,7.39
2023-03-29T21:16:57.231Z,7.31
2023-03-29T21:19:59.472Z,7.35
2023-03-29T21:23:01.868Z,7.36
2023-03-29T21:26:06.742Z,7.38
2023-03-29T21:29:09.468Z,7.39
2023-03-29T21:32:11.677Z,7.31
2023-03-29T21:35:14.113Z,7.27
2023-03-29T21:38:17.133Z,7.30
2023-03-29T21:41:20.250Z,7.31
2023-03-29T21:44:35.825Z,7.33
2023-03-29T21:47:38.306Z,7.35
2023-03-29T21:50:40.555Z,7.36
2023-03-29T21:53:43.071Z,7.33
2023-03-29T21:56:47.700Z,7.33
2023-03-29T21:59:50.208Z,7.26
2023-03-29T22:02:52.465Z,7.23
2023-03-29T22:05:56.899Z,7.24
2023-03-29T22:09:00.664Z,7.16
2023-03-29T22:12:03.871Z,7.14
2023-03-29T22:15:07.809Z,7.09
2023-03-29T22:18:10.476Z,7.13
2023-03-29T22:21:19.704Z,7.10
2023-03-29T22:24:22.236Z,7.09
2023-03-29T22:27:24.515Z,7.08
2023-03-29T22:30:27.259Z,7.07
2023-03-29T22:33:29.531Z,7.03
2023-03-29T22:36:32.142Z,6.93
2023-03-29T22:39:36.043Z,6.87
2023-03-29T22:42:38.876Z,6.84
2023-03-29T22:45:41.278Z,6.76
2023-03-29T22:48:43.700Z,6.59
2023-03-29T22:51:46.202Z,6.50
2023-03-29T22:54:48.719Z,6.42
2023-03-29T22:57:50.918Z,6.36
2023-03-29T23:00:53.365Z,6.32
2023-03-29T23:03:55.708Z,6.28
2023-03-29T23:06:58.564Z,6.23
2023-03-29T23:10:00.850Z,6.17
2023-03-29T23:13:08.613Z,6.15
2023-03-29T23:16:11.020Z,6.08
2023-03-29T23:19:13.549Z,6.16
2023-03-29T23:22:15.910Z,6.19
2023-03-29T23:25:18.412Z,6.23
2023-03-29T23:28:24.510Z,6.22
2023-03-29T23:31:27.047Z,6.24
2023-03-29T23:34:29.436Z,6.28
2023-03-29T23:37:32.078Z,6.29
2023-03-29T23:40:34.222Z,6.21
2023-03-29T23:43:40.535Z,6.27
2023-03-29T23:46:43.017Z,6.28
2023-03-29T23:49:45.600Z,6.27
2023-03-29T23:52:49.345Z,6.34
2023-03-29T23:55:52.010Z,6.30
2023-03-29T23:58:54.492Z,6.23
